Time;durP1;ratioP1;P1;durP2;ratioP2;P2;SDS_P1;SDS_P2;PMS_P1;PMS_P2;Temp;Humidity;BMP_temperature;BMP_pressure;BME280_temperature;BME280_humidity;BME280_pressure;Samples;Min_cycle;Max_cycle;Signal;HPM_P1;HPM_P2
2020/12/16 00:31:50;;;;;;;22.53;12.47;;;7.90;99.90;;;;;;5097950;23;20526;-87
2020/12/16 00:37:20;;;;;;;19.60;11.47;;;7.90;99.90;;;;;;4983201;28;20468;-89
2020/12/16 00:40:09;;;;;;;24.27;11.90;;;7.80;99.90;;;;;;4965238;28;20461;-90
2020/12/16 00:42:38;;;;;;;20.97;12.70;;;7.70;99.90;;;;;;4966482;28;20430;-89
2020/12/16 00:45:10;;;;;;;20.20;12.30;;;7.70;99.90;;;;;;4949755;28;20437;-90
2020/12/16 00:50:48;;;;;;;23.77;13.73;;;7.60;99.90;;;;;;4980126;28;20438;-89
2020/12/16 00:53:17;;;;;;;17.10;11.27;;;7.60;99.90;;;;;;4965525;28;20554;-88
2020/12/16 00:55:43;;;;;;;18.43;11.80;;;7.50;99.90;;;;;;4965274;28;20461;-86
2020/12/16 00:58:19;;;;;;;20.63;12.63;;;7.50;99.90;;;;;;4943396;28;20543;-89
2020/12/16 01:00:44;;;;;;;18.30;11.87;;;7.40;99.90;;;;;;4986262;28;20444;-88
2020/12/16 01:03:29;;;;;;;19.70;12.23;;;7.40;99.90;;;;;;4952643;28;20526;-88
2020/12/16 01:06:17;;;;;;;24.50;12.90;;;7.40;99.90;;;;;;4972756;28;20309;-89
2020/12/16 01:13:54;;;;;;;19.40;13.27;;;7.40;99.90;;;;;;4966493;28;20561;-88
2020/12/16 01:16:43;;;;;;;21.73;12.17;;;7.40;99.90;;;;;;4948961;28;20867;-90
2020/12/16 01:19:32;;;;;;;18.80;11.73;;;7.40;99.90;;;;;;4922866;28;20458;-88
2020/12/16 01:22:12;;;;;;;20.73;12.00;;;7.40;99.90;;;;;;4950902;28;20431;-89
2020/12/16 01:25:01;;;;;;;21.60;12.70;;;7.40;99.90;;;;;;4959773;28;20434;-90
2020/12/16 01:34:45;;;;;;;;;;;;;;;;;;;;;
2020/12/16 01:37:38;;;;;;;19.70;14.13;;;7.20;99.90;;;;;;4931330;28;20487;-92
2020/12/16 01:40:37;;;;;;;21.03;13.27;;;7.20;99.90;;;;;;4917489;29;20456;-90
2020/12/16 01:43:03;;;;;;;23.57;14.07;;;7.10;99.90;;;;;;4930717;29;20524;-89
2020/12/16 01:49:38;;;;;;;19.60;12.57;;;7.00;99.90;;;;;;4883907;29;20262;-89
2020/12/16 02:27:58;;;;;;;21.70;13.77;;;7.20;99.90;;;;;;4969190;28;20493;-89
2020/12/16 02:30:27;;;;;;;15.63;12.13;;;7.30;99.90;;;;;;4953450;28;20468;-91
2020/12/16 02:33:17;;;;;;;22.77;12.90;;;7.30;99.90;;;;;;4932024;28;20482;-89
2020/12/16 02:35:52;;;;;;;16.23;12.43;;;7.40;99.90;;;;;;4951308;28;20541;-89
2020/12/16 02:38:25;;;;;;;18.13;12.77;;;7.40;99.90;;;;;;4934923;28;20497;-90
2020/12/16 02:41:07;;;;;;;17.90;12.60;;;7.40;99.90;;;;;;4950405;28;20440;-87
2020/12/16 02:44:01;;;;;;;16.83;11.80;;;7.40;99.90;;;;;;4947123;28;20442;-90
2020/12/16 02:47:04;;;;;;;20.20;13.30;;;7.50;99.90;;;;;;4951295;28;20441;-90
2020/12/16 02:49:30;;;;;;;18.60;12.20;;;7.50;99.90;;;;;;4949844;28;20462;-89
2020/12/16 02:58:20;;;;;;;17.37;12.87;;;7.70;99.90;;;;;;4898947;29;21028;-91
2020/12/16 03:00:46;;;;;;;16.97;13.00;;;7.70;99.90;;;;;;4945705;28;20459;-90
2020/12/16 03:03:21;;;;;;;20.93;12.90;;;7.70;99.90;;;;;;4948615;28;20492;-90
2020/12/16 05:42:01;;;;;;;15.73;9.67;;;7.90;99.90;;;;;;4962917;28;20478;-86
2020/12/16 05:44:33;;;;;;;19.13;9.67;;;8.00;99.90;;;;;;4943107;28;20438;-88
2020/12/16 05:47:24;;;;;;;15.07;9.60;;;8.10;99.90;;;;;;4942302;28;20442;-87
2020/12/16 05:49:53;;;;;;;22.80;9.97;;;8.10;99.90;;;;;;4942843;28;20549;-88
2020/12/16 05:52:19;;;;;;;17.90;10.93;;;8.10;99.90;;;;;;4942985;28;20446;-88
2020/12/16 05:54:57;;;;;;;13.97;9.07;;;8.10;99.90;;;;;;4933311;28;20524;-89
2020/12/16 05:57:45;;;;;;;17.80;10.07;;;8.00;99.90;;;;;;4934734;28;20190;-89
2020/12/16 06:00:47;;;;;;;;;;;;;;;;;;;;;
2020/12/16 06:03:34;;;;;;;22.83;14.17;;;8.20;99.90;;;;;;4957232;28;20471;-87
2020/12/16 06:06:15;;;;;;;16.30;10.80;;;8.20;99.90;;;;;;4931306;28;20443;-89
2020/12/16 06:08:43;;;;;;;20.50;9.80;;;8.20;99.90;;;;;;4936489;28;20470;-89
2020/12/16 06:11:23;;;;;;;18.27;10.80;;;8.30;99.90;;;;;;4963721;28;20466;-90
2020/12/16 06:14:02;;;;;;;17.20;9.93;;;8.20;99.90;;;;;;4937458;28;20496;-89
2020/12/16 06:17:15;;;;;;;20.50;9.60;;;8.20;99.90;;;;;;4951018;28;20815;-89
2020/12/16 06:24:47;;;;;;;;;;;;;;;;;;;;;
2020/12/16 06:27:35;;;;;;;15.23;9.10;;;8.00;99.90;;;;;;4868074;28;21026;-88
2020/12/16 07:29:04;;;;;;;14.30;10.63;;;8.20;99.90;;;;;;3030238;26;20489;-89
2020/12/16 07:35:19;;;;;;;16.17;10.87;;;8.20;99.90;;;;;;4874851;29;20635;-89
2020/12/16 07:38:07;;;;;;;18.20;10.23;;;8.20;99.90;;;;;;4887298;29;20446;-88
2020/12/16 07:41:03;;;;;;;18.90;11.60;;;8.20;99.90;;;;;;4951232;28;20454;-90
2020/12/16 07:43:29;;;;;;;21.50;11.70;;;8.20;99.90;;;;;;4896359;28;20456;-90
2020/12/16 07:46:08;;;;;;;20.13;12.03;;;8.30;99.90;;;;;;4958973;28;20980;-89
2020/12/16 07:48:46;;;;;;;16.73;11.07;;;8.30;99.90;;;;;;4963299;28;20439;-90
2020/12/16 07:51:12;;;;;;;26.43;12.47;;;8.40;99.90;;;;;;4933788;28;20477;-91
2020/12/16 08:22:10;;;;;;;12.67;8.80;;;8.40;99.90;;;;;;4936692;28;20434;-88
2020/12/16 08:25:08;;;;;;;15.27;8.53;;;8.50;99.90;;;;;;4930230;29;20962;-91
2020/12/16 08:28:25;;;;;;;;;;;;;;;;;;;;;
2020/12/16 08:43:46;;;;;;;13.70;8.57;;;8.80;99.90;;;;;;1168886;23;20781;-88
2020/12/16 08:46:51;;;;;;;16.93;9.50;;;8.80;99.90;;;;;;4960188;28;20872;-91
2020/12/16 08:53:16;;;;;;;;;;;;;;;;;;;;;
2020/12/16 08:56:31;;;;;;;12.90;9.27;;;9.40;99.90;;;;;;4890973;29;20456;-91
2020/12/16 08:59:56;;;;;;;14.10;9.73;;;9.50;99.90;;;;;;4876145;28;20445;-89
2020/12/16 09:03:04;;;;;;;11.73;8.90;;;9.40;99.90;;;;;;4884345;28;21003;-90
2020/12/16 09:12:24;;;;;;;12.17;9.47;;;9.00;99.90;;;;;;4978927;28;20991;-86
2020/12/16 09:15:28;;;;;;;17.40;8.97;;;8.90;99.90;;;;;;4958866;28;20488;-90
2020/12/16 09:18:32;;;;;;;13.20;8.00;;;9.00;99.90;;;;;;4927137;29;20593;-88
2020/12/16 09:21:41;;;;;;;18.87;12.53;;;8.90;99.90;;;;;;4913382;29;20603;-89
2020/12/16 09:24:53;;;;;;;14.23;9.57;;;8.90;99.90;;;;;;4904823;29;20613;-91
2020/12/16 09:28:26;;;;;;;13.50;9.17;;;8.80;99.90;;;;;;4912928;29;20470;-91
2020/12/16 09:31:42;;;;;;;12.50;9.90;;;8.80;99.90;;;;;;4906882;29;20451;-90
2020/12/16 09:34:20;;;;;;;14.80;9.43;;;8.60;99.90;;;;;;4978693;28;20467;-90
2020/12/16 09:37:46;;;;;;;13.00;8.80;;;8.60;99.90;;;;;;4960183;28;20777;-88
2020/12/16 09:40:16;;;;;;;9.50;8.47;;;8.60;99.90;;;;;;4954395;28;20471;-93
2020/12/16 09:43:04;;;;;;;12.40;9.10;;;8.60;99.90;;;;;;4973499;28;20448;-89
2020/12/16 09:45:47;;;;;;;13.40;8.93;;;8.60;99.90;;;;;;4975239;28;20517;-92
2020/12/16 09:48:42;;;;;;;12.93;9.57;;;8.60;99.90;;;;;;4981682;28;20434;-89
2020/12/16 09:51:33;;;;;;;13.53;10.77;;;8.60;99.90;;;;;;4977030;28;20419;-88
2020/12/16 09:54:09;;;;;;;12.37;10.63;;;8.60;99.90;;;;;;4971909;28;20481;-89
2020/12/16 09:57:05;;;;;;;13.27;10.07;;;8.70;99.90;;;;;;4972117;28;20956;-87
2020/12/16 09:59:56;;;;;;;16.70;9.93;;;8.70;99.90;;;;;;4953643;28;20445;-91
2020/12/16 10:02:59;;;;;;;13.37;10.10;;;8.80;99.90;;;;;;4960412;28;20998;-89
2020/12/16 10:05:49;;;;;;;13.50;9.13;;;9.00;99.90;;;;;;4956042;28;20425;-89
2020/12/16 10:08:58;;;;;;;10.90;9.73;;;9.00;99.90;;;;;;4944126;28;20437;-89
2020/12/16 10:15:15;;;;;;;12.87;10.33;;;9.00;99.90;;;;;;4974138;28;20754;-88
2020/12/16 10:17:52;;;;;;;10.80;9.47;;;9.10;99.90;;;;;;4943515;28;20454;-87
2020/12/16 10:20:31;;;;;;;11.77;9.40;;;9.10;99.90;;;;;;4946551;28;21155;-87
2020/12/16 10:23:09;;;;;;;13.27;9.23;;;9.10;99.90;;;;;;4958396;28;20430;-90
2020/12/16 10:25:45;;;;;;;10.70;9.27;;;9.10;99.90;;;;;;4953812;28;20422;-89
2020/12/16 10:28:16;;;;;;;14.40;10.70;;;9.20;99.90;;;;;;4942600;28;20454;-88
2020/12/16 10:31:00;;;;;;;15.63;10.97;;;9.30;99.90;;;;;;4956426;28;20957;-87
2020/12/16 10:33:29;;;;;;;12.97;10.90;;;9.40;99.90;;;;;;4954246;28;20449;-87
2020/12/16 10:36:01;;;;;;;14.87;11.83;;;9.50;99.90;;;;;;4955582;28;20431;-89
2020/12/16 10:38:45;;;;;;;17.53;11.67;;;9.50;99.90;;;;;;4956953;28;20470;-89
2020/12/16 10:41:12;;;;;;;16.13;12.10;;;9.50;99.90;;;;;;4937928;28;20448;-87
2020/12/16 10:43:43;;;;;;;12.67;11.13;;;9.50;99.90;;;;;;4956489;28;20971;-86
2020/12/16 10:46:15;;;;;;;17.80;11.13;;;9.70;99.90;;;;;;4959195;28;20434;-87
2020/12/16 10:48:44;;;;;;;14.57;11.40;;;9.70;99.90;;;;;;4939128;28;20512;-88
2020/12/16 10:51:18;;;;;;;13.23;11.03;;;9.80;99.90;;;;;;4960826;28;20443;-85
2020/12/16 10:53:44;;;;;;;13.10;11.40;;;9.90;99.90;;;;;;4952748;28;20476;-86
2020/12/16 10:56:13;;;;;;;13.87;12.00;;;10.00;99.90;;;;;;4956055;28;20442;-89
2020/12/16 10:58:42;;;;;;;12.50;11.13;;;10.10;99.90;;;;;;4972521;28;20758;-89
2020/12/16 11:01:24;;;;;;;19.10;12.97;;;10.10;99.90;;;;;;4929186;28;20505;-87
2020/12/16 11:03:59;;;;;;;15.10;12.80;;;10.20;99.90;;;;;;4938499;28;20926;-86
2020/12/16 11:06:25;;;;;;;15.70;11.53;;;10.30;99.90;;;;;;4947916;28;20441;-86
2020/12/16 11:08:51;;;;;;;13.17;11.20;;;10.30;99.90;;;;;;4957528;28;20461;-87
2020/12/16 11:11:19;;;;;;;13.20;11.33;;;10.30;99.90;;;;;;4948778;28;20194;-87
2020/12/16 11:13:59;;;;;;;14.73;12.13;;;10.30;99.90;;;;;;4977926;28;20587;-87
2020/12/16 11:16:31;;;;;;;17.10;11.93;;;10.40;99.90;;;;;;4962990;28;20501;-87
2020/12/16 11:19:05;;;;;;;11.93;10.53;;;10.50;99.90;;;;;;4976121;28;20552;-85
2020/12/16 11:21:51;;;;;;;13.70;11.63;;;10.50;99.90;;;;;;4932991;28;20508;-86
2020/12/16 11:24:28;;;;;;;12.50;11.03;;;10.70;99.90;;;;;;4979217;28;20437;-86
2020/12/16 11:27:02;;;;;;;14.53;11.00;;;10.60;99.90;;;;;;4958171;28;20541;-87
2020/12/16 11:29:28;;;;;;;13.07;11.73;;;10.60;99.90;;;;;;4961616;28;21066;-87
2020/12/16 11:32:03;;;;;;;14.03;11.37;;;10.60;99.90;;;;;;4960228;28;20445;-87
2020/12/16 11:34:33;;;;;;;12.37;10.43;;;10.70;99.90;;;;;;4976888;28;20562;-88
2020/12/16 11:37:02;;;;;;;14.20;11.90;;;10.80;99.90;;;;;;4975712;28;20463;-87
2020/12/16 11:40:00;;;;;;;11.93;10.63;;;10.80;99.90;;;;;;4955847;28;20843;-87
2020/12/16 11:42:30;;;;;;;14.70;11.43;;;10.80;99.90;;;;;;4977323;28;20750;-86
2020/12/16 11:45:21;;;;;;;13.07;11.30;;;10.80;99.90;;;;;;4957873;28;20445;-89
2020/12/16 11:47:46;;;;;;;12.20;11.00;;;10.90;99.90;;;;;;4935691;28;20441;-84
2020/12/16 11:50:14;;;;;;;13.33;10.97;;;11.10;99.90;;;;;;4973248;28;21201;-87
2020/12/16 11:52:40;;;;;;;13.47;10.47;;;11.20;99.90;;;;;;4958619;28;20482;-86
2020/12/16 11:55:06;;;;;;;13.20;11.10;;;11.10;99.90;;;;;;4947155;28;20476;-82
2020/12/16 11:57:32;;;;;;;17.77;10.57;;;11.20;99.90;;;;;;4962266;28;20197;-87
2020/12/16 12:00:08;;;;;;;12.20;9.63;;;11.20;99.90;;;;;;4962721;28;20222;-91
2020/12/16 12:02:42;;;;;;;11.60;10.10;;;11.20;99.90;;;;;;4979932;28;20524;-90
2020/12/16 12:05:10;;;;;;;10.50;9.37;;;11.30;99.90;;;;;;4976866;28;20458;-89
2020/12/16 12:10:29;;;;;;;12.00;9.90;;;11.10;99.90;;;;;;5069681;22;20497;-90
2020/12/16 12:13:05;;;;;;;13.00;9.63;;;11.10;99.90;;;;;;4951090;28;20486;-90
2020/12/16 12:15:33;;;;;;;12.47;9.60;;;11.30;99.90;;;;;;4964812;28;20501;-86
2020/12/16 12:17:59;;;;;;;10.63;9.53;;;11.60;99.90;;;;;;4948645;28;20457;-85
2020/12/16 12:20:25;;;;;;;10.73;9.57;;;12.00;99.90;;;;;;4947416;28;20512;-86
2020/12/16 12:22:57;;;;;;;11.40;10.20;;;12.30;99.90;;;;;;4954547;28;20434;-88
2020/12/16 12:25:23;;;;;;;11.30;9.43;;;12.60;99.90;;;;;;4967681;28;20832;-89
2020/12/16 12:27:52;;;;;;;11.30;10.10;;;12.80;99.90;;;;;;4955874;28;20549;-88
2020/12/16 12:30:18;;;;;;;11.63;9.80;;;13.00;99.90;;;;;;4986882;28;20442;-89
2020/12/16 12:32:46;;;;;;;9.70;8.63;;;13.10;99.90;;;;;;4985582;28;20445;-86
2020/12/16 12:35:12;;;;;;;9.97;8.93;;;13.40;99.90;;;;;;4987900;28;20210;-90
2020/12/16 12:37:46;;;;;;;12.43;9.90;;;13.50;99.90;;;;;;4970655;28;21029;-87
2020/12/16 12:40:14;;;;;;;11.60;9.47;;;13.70;99.90;;;;;;4955362;28;20556;-92
2020/12/16 12:42:48;;;;;;;10.63;8.77;;;13.80;99.90;;;;;;4988230;28;20427;-88
2020/12/16 12:45:27;;;;;;;9.43;8.40;;;13.90;99.90;;;;;;4961006;28;20425;-89
2020/12/16 12:48:21;;;;;;;10.63;9.63;;;13.90;99.90;;;;;;4972467;28;21726;-92
2020/12/16 13:15:49;;;;;;;9.80;8.57;;;13.50;99.90;;;;;;4813227;29;20494;-92
2020/12/16 13:18:20;;;;;;;8.63;7.63;;;13.30;99.90;;;;;;4825447;29;20491;-89
2020/12/16 13:24:36;;;;;;;10.70;9.00;;;13.10;99.90;;;;;;4905205;29;20427;-83
2020/12/16 13:27:36;;;;;;;8.43;7.63;;;13.00;99.90;;;;;;4936055;29;20486;-89
2020/12/16 13:30:05;;;;;;;9.20;7.77;;;12.90;99.90;;;;;;4917270;29;20615;-88
2020/12/16 13:32:33;;;;;;;8.60;7.80;;;12.90;99.90;;;;;;4910355;29;20506;-90
2020/12/16 13:35:16;;;;;;;8.97;8.07;;;12.90;99.90;;;;;;4920080;29;20582;-88
2020/12/16 13:38:13;;;;;;;8.80;7.90;;;12.90;99.90;;;;;;4899187;29;20486;-86
2020/12/16 13:41:04;;;;;;;9.23;8.20;;;12.90;99.90;;;;;;4923188;29;20527;-89
2020/12/16 13:43:56;;;;;;;17.80;12.53;;;13.00;99.90;;;;;;4948159;29;20503;-90
2020/12/16 13:49:28;;;;;;;17.73;14.30;;;12.70;99.90;;;;;;4945089;28;20449;-88
2020/12/16 13:55:22;;;;;;;22.97;15.13;;;12.30;99.90;;;;;;4933732;29;20471;-89
2020/12/16 14:00:55;;;;;;;25.70;16.83;;;11.80;99.90;;;;;;5002234;23;20525;-89
2020/12/16 14:03:36;;;;;;;23.47;16.07;;;11.70;99.90;;;;;;4972825;28;20433;-88
2020/12/16 14:06:43;;;;;;;26.73;18.43;;;11.50;99.90;;;;;;4973694;28;20432;-89
2020/12/16 14:09:12;;;;;;;23.60;14.93;;;11.60;99.90;;;;;;4969888;28;20458;-89
2020/12/16 14:12:12;;;;;;;23.10;16.60;;;11.60;99.90;;;;;;4955984;28;20457;-87
2020/12/16 14:15:06;;;;;;;;;;;;;;;;;;;;;
2020/12/16 14:17:47;;;;;;;24.63;17.40;;;11.70;99.90;;;;;;4944724;28;20444;-90
2020/12/16 14:20:36;;;;;;;25.23;17.10;;;11.70;99.90;;;;;;4932025;28;20461;-89
2020/12/16 14:23:31;;;;;;;29.80;17.47;;;11.70;99.90;;;;;;4952124;28;20933;-89
2020/12/16 14:26:16;;;;;;;26.93;17.23;;;11.70;99.90;;;;;;4934680;28;20431;-88
2020/12/16 14:28:48;;;;;;;28.60;18.57;;;11.70;99.90;;;;;;4953689;28;20465;-83
2020/12/16 14:34:24;;;;;;;33.37;20.97;;;11.50;99.90;;;;;;4959369;28;20462;-89
2020/12/16 14:37:25;;;;;;;;;;;;;;;;;;;;;
2020/12/16 14:40:16;;;;;;;31.00;19.20;;;11.20;99.90;;;;;;4967769;28;20441;-89
2020/12/16 14:42:51;;;;;;;33.80;19.00;;;10.90;99.90;;;;;;4967368;28;20525;-89
2020/12/16 14:45:20;;;;;;;29.03;18.23;;;10.70;99.90;;;;;;4949915;28;20733;-87
2020/12/16 14:47:56;;;;;;;35.00;20.97;;;10.60;99.90;;;;;;4949609;28;20473;-87
2020/12/16 14:53:33;;;;;;;31.70;19.90;;;10.30;99.90;;;;;;4977094;28;20472;-89
2020/12/16 15:09:40;;;;;;;42.30;21.90;;;9.50;99.90;;;;;;4958693;28;20850;-87
2020/12/16 15:12:17;;;;;;;45.60;23.40;;;9.40;99.90;;;;;;4950991;28;20478;-87
2020/12/16 15:14:48;;;;;;;44.10;22.87;;;9.20;99.90;;;;;;4937841;28;20473;-86
2020/12/16 15:17:25;;;;;;;39.03;22.40;;;9.20;99.90;;;;;;4967763;28;20441;-88
2020/12/16 15:20:01;;;;;;;48.47;23.93;;;9.20;99.90;;;;;;4933672;28;20461;-86
2020/12/16 15:22:30;;;;;;;50.30;24.83;;;9.20;99.90;;;;;;4954030;28;20434;-86
2020/12/16 15:24:56;;;;;;;47.80;25.20;;;9.20;99.90;;;;;;4935849;28;20861;-87
2020/12/16 15:27:30;;;;;;;54.80;24.60;;;9.20;99.90;;;;;;4950028;28;20577;-86
2020/12/16 15:30:09;;;;;;;44.80;24.17;;;9.10;99.90;;;;;;4949020;28;20225;-88
2020/12/16 15:33:04;;;;;;;55.00;27.03;;;9.10;99.90;;;;;;4947889;28;20437;-85
2020/12/16 15:35:49;;;;;;;56.50;26.70;;;9.10;99.90;;;;;;4930647;28;20586;-86
2020/12/16 15:38:19;;;;;;;43.97;24.93;;;9.20;99.90;;;;;;4948494;28;20478;-86
2020/12/16 15:40:48;;;;;;;71.53;30.00;;;9.30;99.90;;;;;;4936715;28;20468;-86
2020/12/16 15:43:14;;;;;;;77.00;27.40;;;9.30;99.90;;;;;;4952228;28;20465;-82
2020/12/16 15:45:40;;;;;;;58.97;25.60;;;9.30;99.90;;;;;;4965911;28;20477;-88
2020/12/16 15:48:12;;;;;;;69.40;28.20;;;9.40;99.90;;;;;;4936795;28;20430;-83
2020/12/16 15:50:46;;;;;;;70.80;26.60;;;9.40;99.90;;;;;;4966476;28;20450;-83
2020/12/16 15:53:32;;;;;;;61.30;24.63;;;9.40;99.90;;;;;;4921526;28;20457;-85
2020/12/16 15:56:14;;;;;;;76.17;29.33;;;9.50;99.90;;;;;;4951854;28;20560;-85
2020/12/16 15:58:46;;;;;;;69.47;23.80;;;9.60;99.90;;;;;;4968854;28;20485;-84
2020/12/16 16:01:15;;;;;;;61.13;25.57;;;9.70;99.90;;;;;;4954178;28;21019;-86
2020/12/16 16:03:40;;;;;;;53.87;23.17;;;9.70;99.90;;;;;;4937207;28;21055;-84
2020/12/16 16:06:09;;;;;;;93.43;22.47;;;9.60;99.90;;;;;;4970774;28;20434;-86
2020/12/16 16:08:35;;;;;;;89.90;22.60;;;9.60;99.90;;;;;;4955533;28;20194;-82
2020/12/16 16:11:04;;;;;;;51.90;24.40;;;9.60;99.90;;;;;;4936362;28;21099;-85
2020/12/16 16:13:30;;;;;;;52.40;23.50;;;9.60;99.90;;;;;;4951455;28;20439;-88
2020/12/16 16:15:55;;;;;;;68.07;24.50;;;9.60;99.90;;;;;;4951114;28;20461;-82
2020/12/16 16:18:21;;;;;;;57.63;21.40;;;9.70;99.90;;;;;;4968487;28;20475;-82
2020/12/16 16:20:50;;;;;;;54.57;23.03;;;9.70;99.90;;;;;;4949750;28;20190;-84
2020/12/16 16:23:16;;;;;;;70.47;22.07;;;9.70;99.90;;;;;;4950754;28;20518;-85
2020/12/16 16:25:53;;;;;;;103.67;22.10;;;9.60;99.90;;;;;;4950548;28;20504;-86
2020/12/16 16:28:19;;;;;;;85.60;20.97;;;9.60;99.90;;;;;;4966328;28;20194;-89
2020/12/16 16:30:45;;;;;;;54.33;20.03;;;9.60;99.90;;;;;;4952063;28;20458;-84
2020/12/16 16:33:14;;;;;;;65.83;19.20;;;9.60;99.90;;;;;;4952409;28;20794;-82
2020/12/16 16:35:45;;;;;;;61.13;21.37;;;9.60;99.90;;;;;;4931202;28;20233;-88
2020/12/16 16:38:15;;;;;;;48.50;18.67;;;9.60;99.90;;;;;;4951542;28;20821;-85
2020/12/16 16:40:48;;;;;;;67.37;18.57;;;9.60;99.90;;;;;;4947679;28;20543;-86
2020/12/16 16:43:14;;;;;;;108.87;18.20;;;9.60;99.90;;;;;;4966119;28;20780;-83
2020/12/16 16:45:40;;;;;;;78.23;18.20;;;9.50;99.90;;;;;;4952151;28;20469;-87
2020/12/16 16:48:05;;;;;;;77.60;17.83;;;9.40;99.90;;;;;;4953277;28;20867;-82
2020/12/16 16:50:31;;;;;;;71.13;19.40;;;9.40;99.90;;;;;;4969017;28;20485;-83
2020/12/16 16:52:58;;;;;;;76.53;18.60;;;9.30;99.90;;;;;;4947868;28;20194;-83
2020/12/16 16:55:23;;;;;;;64.07;18.50;;;9.30;99.90;;;;;;4933494;28;20336;-83
2020/12/16 16:57:51;;;;;;;70.73;18.60;;;9.30;99.90;;;;;;4946743;28;20981;-83
2020/12/16 17:00:17;;;;;;;42.23;17.33;;;9.30;99.90;;;;;;4949143;28;20485;-80
2020/12/16 17:02:43;;;;;;;43.70;18.87;;;9.30;99.90;;;;;;4949781;28;20437;-83
2020/12/16 17:05:09;;;;;;;51.43;18.30;;;9.30;99.90;;;;;;4948559;28;20438;-81
2020/12/16 17:07:42;;;;;;;53.63;18.90;;;9.30;99.90;;;;;;4952387;28;20194;-81
2020/12/16 17:10:10;;;;;;;47.13;17.33;;;9.40;99.90;;;;;;4953020;28;20216;-82
2020/12/16 17:12:43;;;;;;;67.47;17.97;;;9.40;99.90;;;;;;4956219;28;20460;-82
2020/12/16 17:15:10;;;;;;;66.80;17.87;;;9.40;99.90;;;;;;4973990;28;20484;-83
2020/12/16 17:17:38;;;;;;;73.13;18.87;;;9.30;99.90;;;;;;4955626;28;21172;-82
2020/12/16 17:20:09;;;;;;;96.80;19.27;;;9.30;99.90;;;;;;4951095;28;20876;-84
2020/12/16 17:22:35;;;;;;;105.37;19.40;;;9.20;99.90;;;;;;4967621;28;20442;-83
2020/12/16 17:25:02;;;;;;;52.60;18.70;;;9.20;99.90;;;;;;4934215;28;20441;-82
2020/12/16 17:27:28;;;;;;;45.33;17.93;;;9.20;99.90;;;;;;4966556;28;20485;-82
2020/12/16 17:29:54;;;;;;;59.70;18.27;;;9.20;99.90;;;;;;4952686;28;20496;-82
2020/12/16 17:32:20;;;;;;;61.60;17.90;;;9.20;99.90;;;;;;4952148;28;20191;-83
2020/12/16 17:34:46;;;;;;;43.03;19.37;;;9.20;99.90;;;;;;4968192;28;20468;-82
2020/12/16 17:37:12;;;;;;;53.87;18.53;;;9.20;99.90;;;;;;4964186;28;20850;-82
2020/12/16 17:39:38;;;;;;;45.90;17.20;;;9.30;99.90;;;;;;4968661;28;20207;-86
2020/12/16 17:42:04;;;;;;;36.93;17.00;;;9.20;99.90;;;;;;4952913;28;20429;-84
2020/12/16 17:44:30;;;;;;;39.27;16.70;;;9.10;99.90;;;;;;4967292;28;20433;-84
2020/12/16 17:46:56;;;;;;;45.27;17.63;;;9.00;99.90;;;;;;4951920;28;20437;-83
2020/12/16 17:49:21;;;;;;;73.93;19.27;;;9.10;99.90;;;;;;4952901;28;20210;-85
2020/12/16 17:51:47;;;;;;;62.43;18.27;;;9.10;99.90;;;;;;4942267;28;20202;-82
2020/12/16 17:54:14;;;;;;;42.53;17.47;;;9.10;99.90;;;;;;4970077;28;20288;-82
2020/12/16 17:56:40;;;;;;;68.57;18.37;;;9.10;99.90;;;;;;4971438;28;20189;-84
2020/12/16 17:59:12;;;;;;;57.57;18.40;;;9.00;99.90;;;;;;4974619;28;20545;-86
2020/12/16 18:02:04;;;;;;;54.23;18.20;;;9.00;99.90;;;;;;4944464;28;20453;-85
2020/12/16 18:04:33;;;;;;;80.77;17.90;;;8.80;99.90;;;;;;4959607;28;20438;-85
2020/12/16 18:06:59;;;;;;;56.37;17.63;;;8.80;99.90;;;;;;4977688;28;20465;-85
2020/12/16 18:09:30;;;;;;;89.03;17.70;;;8.70;99.90;;;;;;4955515;28;20462;-84
2020/12/16 18:12:08;;;;;;;43.20;18.50;;;8.70;99.90;;;;;;4955047;28;20445;-84
2020/12/16 18:14:37;;;;;;;72.23;18.50;;;8.70;99.90;;;;;;4957815;28;20469;-87
2020/12/16 18:17:07;;;;;;;57.57;19.17;;;8.80;99.90;;;;;;4955059;28;20465;-84
2020/12/16 18:19:34;;;;;;;42.57;17.77;;;8.80;99.90;;;;;;4972932;28;20465;-84
2020/12/16 18:22:03;;;;;;;50.20;17.57;;;8.80;99.90;;;;;;4971666;28;20434;-83
2020/12/16 18:24:32;;;;;;;40.90;18.73;;;8.80;99.90;;;;;;4971555;28;20422;-87
2020/12/16 18:27:08;;;;;;;53.87;17.73;;;8.90;99.90;;;;;;4941259;28;20450;-82
2020/12/16 18:29:35;;;;;;;54.53;17.03;;;8.80;99.90;;;;;;4957066;28;20489;-86
2020/12/16 18:32:03;;;;;;;41.87;17.73;;;8.70;99.90;;;;;;4959091;28;20426;-84
2020/12/16 18:34:33;;;;;;;63.17;17.60;;;8.80;99.90;;;;;;4958516;28;20474;-83
2020/12/16 18:37:08;;;;;;;91.27;18.30;;;8.80;99.90;;;;;;4959892;28;20442;-85
2020/12/16 18:39:36;;;;;;;79.57;18.27;;;8.80;99.90;;;;;;4941823;28;20546;-84
2020/12/16 18:42:02;;;;;;;34.77;18.47;;;8.70;99.90;;;;;;4958230;28;20886;-82
2020/12/16 18:44:28;;;;;;;97.17;18.63;;;8.70;99.90;;;;;;4941030;28;20443;-84
2020/12/16 18:47:05;;;;;;;49.00;17.70;;;8.70;99.90;;;;;;4956107;28;20860;-86
2020/12/16 18:49:31;;;;;;;48.60;16.40;;;8.70;99.90;;;;;;4961326;28;20446;-84
2020/12/16 18:52:05;;;;;;;37.93;16.13;;;8.70;99.90;;;;;;4943428;28;20437;-84
2020/12/16 18:54:32;;;;;;;40.03;17.00;;;8.70;99.90;;;;;;4949285;28;20226;-83
2020/12/16 18:57:04;;;;;;;39.50;16.80;;;8.70;99.90;;;;;;4954464;28;20486;-82
2020/12/16 18:59:35;;;;;;;51.60;16.03;;;8.70;99.90;;;;;;4940733;28;20446;-85
2020/12/16 19:02:21;;;;;;;54.20;16.50;;;8.80;99.90;;;;;;4955749;28;20443;-82
2020/12/16 19:04:47;;;;;;;52.77;17.20;;;8.80;99.90;;;;;;4957943;28;20433;-82
2020/12/16 19:07:20;;;;;;;36.00;18.53;;;8.80;99.90;;;;;;4973044;28;20518;-83
2020/12/16 19:09:50;;;;;;;55.53;18.90;;;8.80;99.90;;;;;;4957872;28;20458;-83
2020/12/16 19:12:30;;;;;;;63.97;18.37;;;8.70;99.90;;;;;;4930412;28;20493;-84
2020/12/16 19:14:59;;;;;;;47.23;18.40;;;8.50;99.90;;;;;;4954525;28;20561;-83
2020/12/16 19:17:28;;;;;;;43.13;18.57;;;8.60;99.90;;;;;;4973536;28;20450;-85
2020/12/16 19:19:57;;;;;;;63.23;19.20;;;8.60;99.90;;;;;;4942166;28;20483;-88
2020/12/16 19:22:32;;;;;;;47.57;17.47;;;8.50;99.90;;;;;;4959082;28;20418;-83
2020/12/16 19:25:07;;;;;;;47.83;18.00;;;8.50;99.90;;;;;;4946486;28;20433;-84
2020/12/16 19:27:37;;;;;;;46.43;16.07;;;8.50;99.90;;;;;;4975991;28;20449;-86
2020/12/16 19:33:39;;;;;;;34.30;13.30;;;8.40;99.90;;;;;;4885843;29;20425;-84
2020/12/16 19:39:46;;;;;;;19.10;13.07;;;8.30;99.90;;;;;;4974660;28;20489;-84
2020/12/16 19:42:21;;;;;;;28.43;14.43;;;8.20;99.90;;;;;;4942121;28;20874;-85
2020/12/16 19:45:57;;;;;;;;;;;;;;;;;;;;;
2020/12/16 19:51:12;;;;;;;42.77;13.70;;;7.90;99.90;;;;;;5027166;23;20504;-85
2020/12/16 19:53:47;;;;;;;39.10;14.60;;;7.90;99.90;;;;;;4968545;28;20448;-88
2020/12/16 19:57:11;;;;;;;;;;;;;;;;;;;;;
2020/12/16 20:03:26;;;;;;;32.00;12.30;;;7.70;99.90;;;;;;4967429;28;20441;-84
2020/12/16 20:05:59;;;;;;;19.63;12.20;;;7.60;99.90;;;;;;4965650;28;20427;-85
2020/12/16 20:08:46;;;;;;;19.60;10.87;;;7.50;99.90;;;;;;4969012;28;20438;-81
2020/12/16 20:11:24;;;;;;;33.90;11.87;;;7.50;99.90;;;;;;4948247;28;20501;-84
2020/12/16 20:14:15;;;;;;;41.57;13.13;;;7.50;99.90;;;;;;4945611;28;20837;-85
2020/12/16 20:16:49;;;;;;;24.90;12.83;;;7.60;99.90;;;;;;4966281;28;20443;-83
2020/12/16 20:19:30;;;;;;;96.53;13.70;;;7.60;99.90;;;;;;4967134;28;20468;-86
2020/12/16 20:28:51;;;;;;;21.33;11.03;;;7.40;99.90;;;;;;4890506;29;20446;-85
2020/12/16 20:31:25;;;;;;;19.53;11.27;;;7.50;99.90;;;;;;4890047;29;20446;-83
2020/12/16 20:34:51;;;;;;;17.30;11.20;;;7.50;99.90;;;;;;4947088;28;20513;-82
2020/12/16 20:41:03;;;;;;;32.10;10.53;;;7.30;99.90;;;;;;5566744;22;20495;-85
2020/12/16 20:44:25;;;;;;;56.93;12.63;;;7.40;99.90;;;;;;4938550;28;20449;-85
2020/12/16 20:57:36;;;;;;;30.97;11.47;;;7.10;99.90;;;;;;4960830;28;20418;-86
2020/12/16 21:00:34;;;;;;;18.73;11.47;;;7.00;99.90;;;;;;4936702;28;20466;-88
2020/12/16 21:03:12;;;;;;;19.53;10.83;;;7.00;99.90;;;;;;4921781;28;20446;-86
2020/12/16 21:05:50;;;;;;;18.83;11.70;;;7.00;99.90;;;;;;4959269;28;20450;-85
2020/12/16 21:08:15;;;;;;;41.17;13.90;;;7.10;99.90;;;;;;4959397;28;20429;-83
2020/12/16 21:10:43;;;;;;;37.57;12.30;;;7.00;99.90;;;;;;4936906;28;20465;-86
2020/12/16 21:13:12;;;;;;;84.93;14.60;;;7.00;99.90;;;;;;4943859;28;20189;-83
2020/12/16 21:15:38;;;;;;;21.00;12.93;;;7.00;99.90;;;;;;4945128;28;20481;-87
2020/12/16 21:18:07;;;;;;;25.27;12.30;;;7.00;99.90;;;;;;4941816;29;20473;-86
2020/12/16 21:20:44;;;;;;;25.27;11.70;;;7.00;99.90;;;;;;4961618;28;20450;-85
2020/12/16 21:23:18;;;;;;;21.27;12.20;;;7.00;99.90;;;;;;4945811;28;20489;-83
2020/12/16 21:25:50;;;;;;;33.40;12.70;;;7.00;99.90;;;;;;4935104;28;20512;-85
2020/12/16 21:28:22;;;;;;;37.77;12.27;;;7.10;99.90;;;;;;4943567;28;20817;-87